sensor_id;sensor_type;location;lat;lon;timestamp;pressure;altitude;pressure_sealevel;temperature;humidity
39177;BME280;24904;52.208;21.192;2024-01-16T00:03:30;98370.23;;;-1.44;74.32
39177;BME280;24904;52.208;21.192;2024-01-16T00:08:36;98378.48;;;-1.47;74.07
39177;BME280;24904;52.208;21.192;2024-01-16T00:13:41;98396.67;;;-1.45;74.36
39177;BME280;24904;52.208;21.192;2024-01-16T00:18:46;98402.52;;;-1.42;74.09
39177;BME280;24904;52.208;21.192;2024-01-16T00:23:51;98416.92;;;-1.50;74.01
39177;BME280;24904;52.208;21.192;2024-01-16T00:28:56;98429.00;;;-1.50;74.45
39177;BME280;24904;52.208;21.192;2024-01-16T00:34:01;98432.98;;;-1.47;74.12
39177;BME280;24904;52.208;21.192;2024-01-16T00:47:22;98458.34;;;-1.45;74.36
39177;BME280;24904;52.208;21.192;2024-01-16T00:52:27;98463.27;;;-1.45;74.14
39177;BME280;24904;52.208;21.192;2024-01-16T00:57:32;98466.52;;;-1.44;74.23
39177;BME280;24904;52.208;21.192;2024-01-16T01:02:37;98475.21;;;-1.50;73.94
39177;BME280;24904;52.208;21.192;2024-01-16T01:07:43;98479.61;;;-1.46;74.54
39177;BME280;24904;52.208;21.192;2024-01-16T01:12:48;98482.14;;;-1.47;74.61
39177;BME280;24904;52.208;21.192;2024-01-16T01:17:53;98482.29;;;-1.44;73.96
39177;BME280;24904;52.208;21.192;2024-01-16T01:22:59;98491.52;;;-1.50;73.47
39177;BME280;24904;52.208;21.192;2024-01-16T01:28:04;98494.42;;;-1.58;73.31
39177;BME280;24904;52.208;21.192;2024-01-16T01:33:09;98505.30;;;-1.63;73.00
39177;BME280;24904;52.208;21.192;2024-01-16T01:38:15;98517.75;;;-1.68;72.28
39177;BME280;24904;52.208;21.192;2024-01-16T01:43:24;98536.67;;;-1.72;72.41
39177;BME280;24904;52.208;21.192;2024-01-16T01:48:29;98546.20;;;-1.75;72.00
39177;BME280;24904;52.208;21.192;2024-01-16T01:53:36;98557.41;;;-1.78;71.72
39177;BME280;24904;52.208;21.192;2024-01-16T01:58:43;98571.81;;;-1.80;72.18
39177;BME280;24904;52.208;21.192;2024-01-16T02:03:49;98579.41;;;-1.78;72.19
39177;BME280;24904;52.208;21.192;2024-01-16T02:08:55;98590.30;;;-1.70;72.47
39177;BME280;24904;52.208;21.192;2024-01-16T02:14:00;98600.95;;;-1.62;72.70
39177;BME280;24904;52.208;21.192;2024-01-16T02:19:06;98613.18;;;-1.57;72.62
39177;BME280;24904;52.208;21.192;2024-01-16T02:24:11;98617.33;;;-1.49;72.72
39177;BME280;24904;52.208;21.192;2024-01-16T02:29:17;98634.59;;;-1.45;71.96
39177;BME280;24904;52.208;21.192;2024-01-16T02:34:22;98636.07;;;-1.51;71.71
39177;BME280;24904;52.208;21.192;2024-01-16T02:39:27;98646.56;;;-1.61;71.24
39177;BME280;24904;52.208;21.192;2024-01-16T02:44:33;98656.54;;;-1.62;71.19
39177;BME280;24904;52.208;21.192;2024-01-16T02:49:38;98669.04;;;-1.68;70.40
39177;BME280;24904;52.208;21.192;2024-01-16T02:54:43;98674.08;;;-1.76;69.74
39177;BME280;24904;52.208;21.192;2024-01-16T02:59:48;98687.95;;;-1.83;69.69
39177;BME280;24904;52.208;21.192;2024-01-16T03:04:53;98696.46;;;-1.83;69.48
39177;BME280;24904;52.208;21.192;2024-01-16T03:09:58;98701.89;;;-1.88;68.66
39177;BME280;24904;52.208;21.192;2024-01-16T03:15:04;98709.50;;;-2.00;68.29
39177;BME280;24904;52.208;21.192;2024-01-16T03:20:11;98717.89;;;-2.08;68.29
39177;BME280;24904;52.208;21.192;2024-01-16T03:25:17;98729.09;;;-2.13;68.39
39177;BME280;24904;52.208;21.192;2024-01-16T03:30:22;98724.69;;;-2.18;68.47
39177;BME280;24904;52.208;21.192;2024-01-16T03:35:27;98738.39;;;-2.24;67.76
39177;BME280;24904;52.208;21.192;2024-01-16T03:40:32;98744.98;;;-2.24;68.63
39177;BME280;24904;52.208;21.192;2024-01-16T03:45:38;98752.50;;;-2.36;67.91
39177;BME280;24904;52.208;21.192;2024-01-16T03:56:31;98774.37;;;-2.43;67.57
39177;BME280;24904;52.208;21.192;2024-01-16T04:01:35;98788.48;;;-2.48;68.09
39177;BME280;24904;52.208;21.192;2024-01-16T04:08:11;98806.02;;;-2.43;68.14
39177;BME280;24904;52.208;21.192;2024-01-16T04:13:17;98821.94;;;-2.50;67.90
39177;BME280;24904;52.208;21.192;2024-01-16T04:18:22;98833.97;;;-2.64;67.57
39177;BME280;24904;52.208;21.192;2024-01-16T04:23:27;98847.20;;;-2.67;68.18
39177;BME280;24904;52.208;21.192;2024-01-16T04:28:32;98851.80;;;-2.74;68.00
39177;BME280;24904;52.208;21.192;2024-01-16T04:33:37;98858.48;;;-2.76;67.85
39177;BME280;24904;52.208;21.192;2024-01-16T04:38:42;98866.86;;;-2.85;67.40
39177;BME280;24904;52.208;21.192;2024-01-16T04:43:47;98877.89;;;-2.91;67.76
39177;BME280;24904;52.208;21.192;2024-01-16T04:48:53;98881.77;;;-2.90;67.54
39177;BME280;24904;52.208;21.192;2024-01-16T04:53:58;98884.79;;;-2.88;67.35
39177;BME280;24904;52.208;21.192;2024-01-16T04:59:03;98886.60;;;-2.98;67.29
39177;BME280;24904;52.208;21.192;2024-01-16T05:04:08;98896.45;;;-2.95;67.54
39177;BME280;24904;52.208;21.192;2024-01-16T05:13:01;98915.95;;;-2.95;67.18
39177;BME280;24904;52.208;21.192;2024-01-16T05:18:07;98930.44;;;-3.03;66.95
39177;BME280;24904;52.208;21.192;2024-01-16T05:23:12;98945.64;;;-3.05;66.92
39177;BME280;24904;52.208;21.192;2024-01-16T05:28:17;98954.63;;;-3.12;66.78
39177;BME280;24904;52.208;21.192;2024-01-16T05:33:22;98954.55;;;-3.11;67.08
39177;BME280;24904;52.208;21.192;2024-01-16T05:38:27;98961.87;;;-3.16;67.14
39177;BME280;24904;52.208;21.192;2024-01-16T05:43:32;98969.86;;;-3.17;66.96
39177;BME280;24904;52.208;21.192;2024-01-16T05:48:37;98984.33;;;-3.27;66.97
39177;BME280;24904;52.208;21.192;2024-01-16T05:53:43;98991.10;;;-3.32;67.13
39177;BME280;24904;52.208;21.192;2024-01-16T05:58:48;98998.05;;;-3.41;67.18
39177;BME280;24904;52.208;21.192;2024-01-16T06:03:53;99002.95;;;-3.47;67.41
39177;BME280;24904;52.208;21.192;2024-01-16T06:08:58;99011.98;;;-3.46;67.18
39177;BME280;24904;52.208;21.192;2024-01-16T06:14:08;99012.94;;;-3.50;67.35
39177;BME280;24904;52.208;21.192;2024-01-16T06:19:15;99014.02;;;-3.60;66.76
39177;BME280;24904;52.208;21.192;2024-01-16T06:24:20;99026.45;;;-3.64;67.50
39177;BME280;24904;52.208;21.192;2024-01-16T06:29:25;99038.43;;;-3.71;67.17
39177;BME280;24904;52.208;21.192;2024-01-16T06:34:30;99047.09;;;-3.64;67.26
39177;BME280;24904;52.208;21.192;2024-01-16T06:39:35;99052.66;;;-3.62;67.33
39177;BME280;24904;52.208;21.192;2024-01-16T06:44:41;99062.77;;;-3.64;66.92
39177;BME280;24904;52.208;21.192;2024-01-16T06:49:46;99070.71;;;-3.61;66.89
39177;BME280;24904;52.208;21.192;2024-01-16T06:54:51;99080.98;;;-3.69;66.79
39177;BME280;24904;52.208;21.192;2024-01-16T06:59:56;99087.89;;;-3.67;67.16
39177;BME280;24904;52.208;21.192;2024-01-16T07:05:01;99100.28;;;-3.69;67.01
39177;BME280;24904;52.208;21.192;2024-01-16T07:10:09;99109.38;;;-3.75;66.80
39177;BME280;24904;52.208;21.192;2024-01-16T07:15:17;99111.70;;;-3.77;66.57
39177;BME280;24904;52.208;21.192;2024-01-16T07:20:22;99124.84;;;-3.79;66.97
39177;BME280;24904;52.208;21.192;2024-01-16T07:25:27;99133.52;;;-3.73;66.76
39177;BME280;24904;52.208;21.192;2024-01-16T07:30:32;99142.05;;;-3.70;66.67
39177;BME280;24904;52.208;21.192;2024-01-16T07:35:37;99154.63;;;-3.67;66.56
39177;BME280;24904;52.208;21.192;2024-01-16T07:40:44;99160.67;;;-3.66;66.74
39177;BME280;24904;52.208;21.192;2024-01-16T07:45:49;99169.10;;;-3.74;65.97
39177;BME280;24904;52.208;21.192;2024-01-16T07:50:54;99182.05;;;-3.78;66.04
39177;BME280;24904;52.208;21.192;2024-01-16T07:55:59;99191.48;;;-3.72;65.97
39177;BME280;24904;52.208;21.192;2024-01-16T08:01:04;99201.74;;;-3.77;65.77
39177;BME280;24904;52.208;21.192;2024-01-16T08:06:10;99207.29;;;-3.84;65.74
39177;BME280;24904;52.208;21.192;2024-01-16T08:11:15;99214.48;;;-3.78;65.79
39177;BME280;24904;52.208;21.192;2024-01-16T08:16:20;99221.69;;;-3.81;65.56
39177;BME280;24904;52.208;21.192;2024-01-16T08:21:25;99225.96;;;-3.72;66.05
39177;BME280;24904;52.208;21.192;2024-01-16T08:26:30;99235.00;;;-3.53;65.80
39177;BME280;24904;52.208;21.192;2024-01-16T08:31:35;99242.84;;;-3.45;65.40
39177;BME280;24904;52.208;21.192;2024-01-16T08:36:41;99246.88;;;-3.40;64.46
39177;BME280;24904;52.208;21.192;2024-01-16T08:41:46;99255.00;;;-3.33;64.21
39177;BME280;24904;52.208;21.192;2024-01-16T08:46:51;99265.98;;;-3.36;63.79
39177;BME280;24904;52.208;21.192;2024-01-16T08:51:56;99273.45;;;-3.38;63.64
39177;BME280;24904;52.208;21.192;2024-01-16T08:57:02;99281.54;;;-3.33;64.28
39177;BME280;24904;52.208;21.192;2024-01-16T09:02:07;99300.74;;;-3.22;63.30
39177;BME280;24904;52.208;21.192;2024-01-16T09:07:13;99300.77;;;-3.26;62.86
39177;BME280;24904;52.208;21.192;2024-01-16T09:12:19;99309.31;;;-3.23;63.26
39177;BME280;24904;52.208;21.192;2024-01-16T09:17:24;99318.57;;;-3.08;63.51
39177;BME280;24904;52.208;21.192;2024-01-16T09:22:30;99323.77;;;-2.98;62.65
39177;BME280;24904;52.208;21.192;2024-01-16T09:27:35;99325.54;;;-2.93;62.24
39177;BME280;24904;52.208;21.192;2024-01-16T09:32:40;99324.39;;;-2.95;62.30
39177;BME280;24904;52.208;21.192;2024-01-16T09:37:46;99323.42;;;-2.86;61.90
39177;BME280;24904;52.208;21.192;2024-01-16T09:42:51;99330.37;;;-2.80;62.19
39177;BME280;24904;52.208;21.192;2024-01-16T09:47:56;99333.23;;;-2.86;60.52
39177;BME280;24904;52.208;21.192;2024-01-16T09:53:03;99336.19;;;-2.92;60.89
39177;BME280;24904;52.208;21.192;2024-01-16T09:58:11;99337.25;;;-2.84;61.00
39177;BME280;24904;52.208;21.192;2024-01-16T10:03:18;99348.77;;;-2.79;60.27
39177;BME280;24904;52.208;21.192;2024-01-16T10:08:24;99358.47;;;-2.80;59.88
39177;BME280;24904;52.208;21.192;2024-01-16T10:13:29;99366.30;;;-2.82;59.83
39177;BME280;24904;52.208;21.192;2024-01-16T10:18:34;99372.86;;;-2.76;59.62
39177;BME280;24904;52.208;21.192;2024-01-16T10:23:41;99376.97;;;-2.75;59.59
39177;BME280;24904;52.208;21.192;2024-01-16T10:28:46;99390.18;;;-2.65;59.38
39177;BME280;24904;52.208;21.192;2024-01-16T10:33:51;99399.35;;;-2.66;58.96
39177;BME280;24904;52.208;21.192;2024-01-16T10:39:04;99400.33;;;-2.65;58.52
39177;BME280;24904;52.208;21.192;2024-01-16T10:44:10;99407.45;;;-2.72;58.38
39177;BME280;24904;52.208;21.192;2024-01-16T10:49:15;99403.63;;;-2.70;59.02
39177;BME280;24904;52.208;21.192;2024-01-16T10:54:20;99406.03;;;-2.67;57.70
39177;BME280;24904;52.208;21.192;2024-01-16T10:59:30;99413.13;;;-2.67;58.28
39177;BME280;24904;52.208;21.192;2024-01-16T11:04:39;99416.83;;;-2.63;58.36
39177;BME280;24904;52.208;21.192;2024-01-16T11:09:45;99423.42;;;-2.60;57.84
39177;BME280;24904;52.208;21.192;2024-01-16T11:14:53;99425.44;;;-2.65;57.89
39177;BME280;24904;52.208;21.192;2024-01-16T11:19:59;99431.40;;;-2.70;57.68
39177;BME280;24904;52.208;21.192;2024-01-16T11:25:11;99431.09;;;-2.68;57.21
39177;BME280;24904;52.208;21.192;2024-01-16T11:30:30;99436.31;;;-2.65;57.63
39177;BME280;24904;52.208;21.192;2024-01-16T11:35:37;99438.45;;;-2.64;57.66
39177;BME280;24904;52.208;21.192;2024-01-16T11:40:43;99439.12;;;-2.63;58.32
39177;BME280;24904;52.208;21.192;2024-01-16T11:45:52;99438.60;;;-2.52;58.13
39177;BME280;24904;52.208;21.192;2024-01-16T11:50:57;99442.65;;;-2.48;57.73
39177;BME280;24904;52.208;21.192;2024-01-16T11:56:16;99444.23;;;-2.47;57.52
39177;BME280;24904;52.208;21.192;2024-01-16T12:01:29;99456.00;;;-2.49;57.33
39177;BME280;24904;52.208;21.192;2024-01-16T12:06:36;99462.71;;;-2.59;56.91
39177;BME280;24904;52.208;21.192;2024-01-16T12:11:43;99463.48;;;-2.67;56.56
39177;BME280;24904;52.208;21.192;2024-01-16T12:16:48;99471.67;;;-2.50;58.29
39177;BME280;24904;52.208;21.192;2024-01-16T12:21:53;99470.14;;;-2.34;58.55
39177;BME280;24904;52.208;21.192;2024-01-16T12:27:00;99474.13;;;-2.21;58.66
39177;BME280;24904;52.208;21.192;2024-01-16T12:32:10;99472.11;;;-2.03;58.91
39177;BME280;24904;52.208;21.192;2024-01-16T12:37:18;99477.17;;;-1.94;58.59
39177;BME280;24904;52.208;21.192;2024-01-16T12:42:23;99479.09;;;-1.87;57.80
39177;BME280;24904;52.208;21.192;2024-01-16T12:55:39;99507.42;;;-1.74;58.31
39177;BME280;24904;52.208;21.192;2024-01-16T13:00:45;99519.25;;;-1.78;58.23
39177;BME280;24904;52.208;21.192;2024-01-16T13:05:57;99521.63;;;-1.76;58.79
39177;BME280;24904;52.208;21.192;2024-01-16T13:11:07;99518.00;;;-1.88;58.30
39177;BME280;24904;52.208;21.192;2024-01-16T13:16:11;99515.16;;;-1.96;59.02
39177;BME280;24904;52.208;21.192;2024-01-16T13:21:16;99523.05;;;-2.01;59.18
39177;BME280;24904;52.208;21.192;2024-01-16T13:26:21;99519.67;;;-2.15;58.82
39177;BME280;24904;52.208;21.192;2024-01-16T13:31:26;99527.77;;;-2.14;59.00
39177;BME280;24904;52.208;21.192;2024-01-16T13:36:31;99537.16;;;-2.14;59.23
39177;BME280;24904;52.208;21.192;2024-01-16T13:41:36;99543.63;;;-2.14;59.33
39177;BME280;24904;52.208;21.192;2024-01-16T13:46:41;99548.29;;;-2.21;59.41
39177;BME280;24904;52.208;21.192;2024-01-16T13:51:46;99552.98;;;-2.14;59.62
39177;BME280;24904;52.208;21.192;2024-01-16T13:56:52;99565.56;;;-2.10;59.17
39177;BME280;24904;52.208;21.192;2024-01-16T14:01:57;99574.45;;;-2.12;59.47
39177;BME280;24904;52.208;21.192;2024-01-16T14:07:02;99584.55;;;-2.10;59.44
39177;BME280;24904;52.208;21.192;2024-01-16T14:12:09;99584.89;;;-2.06;59.39
39177;BME280;24904;52.208;21.192;2024-01-16T14:17:14;99595.45;;;-2.07;59.56
39177;BME280;24904;52.208;21.192;2024-01-16T14:22:19;99603.30;;;-2.08;59.62
39177;BME280;24904;52.208;21.192;2024-01-16T14:27:24;99612.54;;;-2.06;59.49
39177;BME280;24904;52.208;21.192;2024-01-16T14:32:30;99622.16;;;-2.05;59.62
39177;BME280;24904;52.208;21.192;2024-01-16T14:37:35;99635.98;;;-2.07;59.37
39177;BME280;24904;52.208;21.192;2024-01-16T14:42:40;99647.14;;;-2.11;59.26
39177;BME280;24904;52.208;21.192;2024-01-16T14:47:46;99651.05;;;-2.20;59.29
39177;BME280;24904;52.208;21.192;2024-01-16T14:52:51;99654.61;;;-2.30;59.43
39177;BME280;24904;52.208;21.192;2024-01-16T14:57:57;99665.57;;;-2.24;60.17
39177;BME280;24904;52.208;21.192;2024-01-16T15:03:04;99672.84;;;-2.12;60.17
39177;BME280;24904;52.208;21.192;2024-01-16T15:08:09;99675.86;;;-2.06;59.97
39177;BME280;24904;52.208;21.192;2024-01-16T15:13:16;99677.15;;;-2.00;60.41
39177;BME280;24904;52.208;21.192;2024-01-16T15:18:21;99685.73;;;-1.95;60.07
39177;BME280;24904;52.208;21.192;2024-01-16T15:23:26;99693.98;;;-1.94;60.01
39177;BME280;24904;52.208;21.192;2024-01-16T15:28:32;99707.36;;;-2.08;59.68
39177;BME280;24904;52.208;21.192;2024-01-16T15:33:37;99712.35;;;-2.14;60.15
39177;BME280;24904;52.208;21.192;2024-01-16T15:38:42;99713.26;;;-2.22;59.88
39177;BME280;24904;52.208;21.192;2024-01-16T15:43:47;99711.58;;;-2.37;60.20
39177;BME280;24904;52.208;21.192;2024-01-16T15:48:52;99716.52;;;-2.45;60.15
39177;BME280;24904;52.208;21.192;2024-01-16T15:53:59;99725.19;;;-2.50;60.40
39177;BME280;24904;52.208;21.192;2024-01-16T15:59:05;99727.74;;;-2.57;60.52
39177;BME280;24904;52.208;21.192;2024-01-16T16:04:10;99733.06;;;-2.59;60.31
39177;BME280;24904;52.208;21.192;2024-01-16T16:09:15;99735.27;;;-2.68;60.49
39177;BME280;24904;52.208;21.192;2024-01-16T16:14:20;99744.69;;;-2.64;60.99
39177;BME280;24904;52.208;21.192;2024-01-16T16:19:26;99749.31;;;-2.53;61.14
39177;BME280;24904;52.208;21.192;2024-01-16T16:24:31;99763.11;;;-2.47;61.23
39177;BME280;24904;52.208;21.192;2024-01-16T16:29:36;99769.02;;;-2.40;61.26
39177;BME280;24904;52.208;21.192;2024-01-16T16:34:41;99769.98;;;-2.36;61.30
39177;BME280;24904;52.208;21.192;2024-01-16T16:39:48;99767.32;;;-2.31;61.09
39177;BME280;24904;52.208;21.192;2024-01-16T16:44:53;99774.30;;;-2.31;61.09
39177;BME280;24904;52.208;21.192;2024-01-16T16:49:58;99780.33;;;-2.29;61.02
39177;BME280;24904;52.208;21.192;2024-01-16T16:55:04;99782.73;;;-2.30;60.71
39177;BME280;24904;52.208;21.192;2024-01-16T17:06:01;99788.84;;;-2.49;60.85
39177;BME280;24904;52.208;21.192;2024-01-16T17:11:07;99788.95;;;-2.51;60.88
39177;BME280;24904;52.208;21.192;2024-01-16T17:16:31;99792.32;;;-2.52;61.05
39177;BME280;24904;52.208;21.192;2024-01-16T17:21:36;99794.11;;;-2.53;61.08
39177;BME280;24904;52.208;21.192;2024-01-16T17:26:42;99796.58;;;-2.53;61.11
39177;BME280;24904;52.208;21.192;2024-01-16T17:31:48;99795.80;;;-2.55;61.16
39177;BME280;24904;52.208;21.192;2024-01-16T17:36:53;99798.69;;;-2.61;61.18
39177;BME280;24904;52.208;21.192;2024-01-16T17:41:58;99806.85;;;-2.76;61.04
39177;BME280;24904;52.208;21.192;2024-01-16T17:47:04;99813.73;;;-2.92;61.18
39177;BME280;24904;52.208;21.192;2024-01-16T17:52:09;99821.86;;;-3.09;61.42
39177;BME280;24904;52.208;21.192;2024-01-16T17:57:14;99823.16;;;-3.24;61.43
39177;BME280;24904;52.208;21.192;2024-01-16T18:02:19;99830.70;;;-3.40;61.56
39177;BME280;24904;52.208;21.192;2024-01-16T18:07:24;99829.66;;;-3.53;61.60
39177;BME280;24904;52.208;21.192;2024-01-16T18:12:29;99834.75;;;-3.47;62.09
39177;BME280;24904;52.208;21.192;2024-01-16T18:17:35;99840.19;;;-3.51;62.27
39177;BME280;24904;52.208;21.192;2024-01-16T18:22:40;99847.64;;;-3.69;61.89
39177;BME280;24904;52.208;21.192;2024-01-16T18:27:45;99859.05;;;-3.88;61.88
39177;BME280;24904;52.208;21.192;2024-01-16T18:32:52;99862.54;;;-4.02;62.03
39177;BME280;24904;52.208;21.192;2024-01-16T18:37:57;99865.87;;;-4.14;62.05
39177;BME280;24904;52.208;21.192;2024-01-16T18:43:02;99870.45;;;-4.30;62.10
39177;BME280;24904;52.208;21.192;2024-01-16T18:48:08;99873.61;;;-4.50;62.05
39177;BME280;24904;52.208;21.192;2024-01-16T18:53:13;99879.73;;;-4.67;62.28
39177;BME280;24904;52.208;21.192;2024-01-16T18:58:18;99888.46;;;-4.76;62.46
39177;BME280;24904;52.208;21.192;2024-01-16T19:03:24;99887.04;;;-4.94;62.39
39177;BME280;24904;52.208;21.192;2024-01-16T19:08:29;99893.02;;;-5.07;62.69
39177;BME280;24904;52.208;21.192;2024-01-16T19:13:35;99899.51;;;-5.13;62.82
39177;BME280;24904;52.208;21.192;2024-01-16T19:18:42;99902.61;;;-5.17;63.01
39177;BME280;24904;52.208;21.192;2024-01-16T19:23:49;99913.05;;;-5.22;62.93
39177;BME280;24904;52.208;21.192;2024-01-16T19:28:55;99927.36;;;-5.38;62.91
39177;BME280;24904;52.208;21.192;2024-01-16T19:34:00;99940.80;;;-5.46;63.08
39177;BME280;24904;52.208;21.192;2024-01-16T19:39:05;99946.58;;;-5.58;63.21
39177;BME280;24904;52.208;21.192;2024-01-16T19:44:17;99951.53;;;-5.62;63.23
39177;BME280;24904;52.208;21.192;2024-01-16T19:49:23;99944.39;;;-5.68;63.57
39177;BME280;24904;52.208;21.192;2024-01-16T19:54:29;99938.97;;;-5.80;63.36
39177;BME280;24904;52.208;21.192;2024-01-16T19:59:36;99939.74;;;-5.89;63.27
39177;BME280;24904;52.208;21.192;2024-01-16T20:04:41;99945.39;;;-6.00;63.39
39177;BME280;24904;52.208;21.192;2024-01-16T20:09:46;99948.49;;;-6.11;63.65
39177;BME280;24904;52.208;21.192;2024-01-16T20:14:51;99951.08;;;-6.06;63.97
39177;BME280;24904;52.208;21.192;2024-01-16T20:19:57;99963.81;;;-6.09;63.85
39177;BME280;24904;52.208;21.192;2024-01-16T20:25:03;99982.20;;;-6.06;64.25
39177;BME280;24904;52.208;21.192;2024-01-16T20:30:09;99987.77;;;-5.98;64.48
39177;BME280;24904;52.208;21.192;2024-01-16T20:35:16;99989.84;;;-5.97;64.82
39177;BME280;24904;52.208;21.192;2024-01-16T20:40:22;99991.09;;;-5.92;64.92
39177;BME280;24904;52.208;21.192;2024-01-16T20:45:27;99995.95;;;-5.85;65.13
39177;BME280;24904;52.208;21.192;2024-01-16T20:50:33;99999.27;;;-5.78;65.13
39177;BME280;24904;52.208;21.192;2024-01-16T20:55:39;99988.36;;;-5.75;65.16
39177;BME280;24904;52.208;21.192;2024-01-16T21:08:45;99963.29;;;-5.70;64.98
39177;BME280;24904;52.208;21.192;2024-01-16T21:13:50;99969.60;;;-5.70;65.15
39177;BME280;24904;52.208;21.192;2024-01-16T21:18:56;99960.71;;;-5.69;65.18
39177;BME280;24904;52.208;21.192;2024-01-16T21:24:01;99962.67;;;-5.73;65.32
39177;BME280;24904;52.208;21.192;2024-01-16T21:29:08;99961.66;;;-5.74;65.25
39177;BME280;24904;52.208;21.192;2024-01-16T21:34:13;99968.84;;;-5.75;65.43
39177;BME280;24904;52.208;21.192;2024-01-16T21:39:20;99974.40;;;-5.74;65.37
39177;BME280;24904;52.208;21.192;2024-01-16T21:44:25;99989.65;;;-5.77;65.22
39177;BME280;24904;52.208;21.192;2024-01-16T21:49:30;100000.64;;;-5.82;65.37
39177;BME280;24904;52.208;21.192;2024-01-16T21:54:35;100001.21;;;-5.87;65.20
39177;BME280;24904;52.208;21.192;2024-01-16T21:59:40;99996.13;;;-6.00;64.99
39177;BME280;24904;52.208;21.192;2024-01-16T22:04:45;100000.60;;;-6.09;65.18
39177;BME280;24904;52.208;21.192;2024-01-16T22:09:50;100002.55;;;-6.15;65.44
39177;BME280;24904;52.208;21.192;2024-01-16T22:14:55;99992.83;;;-6.14;65.99
39177;BME280;24904;52.208;21.192;2024-01-16T22:20:00;99976.27;;;-6.05;66.23
39177;BME280;24904;52.208;21.192;2024-01-16T22:25:08;99971.64;;;-6.01;66.20
39177;BME280;24904;52.208;21.192;2024-01-16T22:30:15;99969.60;;;-6.01;66.14
39177;BME280;24904;52.208;21.192;2024-01-16T22:35:20;99970.05;;;-6.02;66.20
39177;BME280;24904;52.208;21.192;2024-01-16T22:40:25;99966.92;;;-5.98;66.45
39177;BME280;24904;52.208;21.192;2024-01-16T22:45:31;99957.20;;;-5.92;66.47
39177;BME280;24904;52.208;21.192;2024-01-16T22:50:36;99949.79;;;-5.83;66.74
39177;BME280;24904;52.208;21.192;2024-01-16T22:55:43;99948.35;;;-5.74;66.66
39177;BME280;24904;52.208;21.192;2024-01-16T23:00:49;99952.85;;;-5.68;66.71
39177;BME280;24904;52.208;21.192;2024-01-16T23:05:57;99953.01;;;-5.60;66.86
39177;BME280;24904;52.208;21.192;2024-01-16T23:11:04;99948.98;;;-5.53;66.88
39177;BME280;24904;52.208;21.192;2024-01-16T23:16:09;99947.14;;;-5.47;66.75
39177;BME280;24904;52.208;21.192;2024-01-16T23:21:15;99947.92;;;-5.45;66.65
39177;BME280;24904;52.208;21.192;2024-01-16T23:26:22;99938.16;;;-5.43;66.85
39177;BME280;24904;52.208;21.192;2024-01-16T23:31:27;99938.36;;;-5.37;66.83
39177;BME280;24904;52.208;21.192;2024-01-16T23:36:32;99938.18;;;-5.32;67.06
39177;BME280;24904;52.208;21.192;2024-01-16T23:41:37;99940.06;;;-5.22;67.30
39177;BME280;24904;52.208;21.192;2024-01-16T23:46:42;99930.22;;;-5.12;67.17
39177;BME280;24904;52.208;21.192;2024-01-16T23:51:48;99923.42;;;-5.12;67.14
39177;BME280;24904;52.208;21.192;2024-01-16T23:56:53;99914.79;;;-5.05;67.42
